• Join FlightAware (Why Join?)
  • Login
  • US Flag 
07:33AM EDT


 

Airport Tracker/Info


-or-


 

Live Flight TrackerFlight Track Log ✈ TAM3892 ✈ 11-May-2013 ✈ SBRF / REC - SBFZ / FOR

Flight Track Log - Related Links

Times and Time Zones

All times are in EDT time to prevent confusion due to time zone crossing. See the TAM3892 flight status page for this flight to view local times or setup timezone preferences in your user account.

Time Position Orientation Groundspeed Altitude Reporting Facility
EDT Latitude Longitude Course Direction KTS MPH feet Rate Location/Type
05:37PM -6.1333 -36.5866 320° Northwest  Level Estimated
05:38PM -6.0620 -36.6458 320° Northwest  Level Estimated
05:39PM -5.9907 -36.7049 320° Northwest  Level Estimated
05:40PM -5.9194 -36.7640 320° Northwest  Level Estimated
05:41PM -5.8481 -36.8232 320° Northwest  Level Estimated
05:42PM -5.7767 -36.8823 320° Northwest  Level Estimated
05:43PM -5.7054 -36.9413 321° Northwest  Level Estimated
05:44PM -5.6341 -37.0004 321° Northwest  Level Estimated
05:45PM -5.5627 -37.0594 321° Northwest  Level Estimated
05:46PM -5.4914 -37.1185 321° Northwest  Level Estimated
05:47PM -5.4200 -37.1775 321° Northwest  Level Estimated
05:48PM -5.3486 -37.2365 321° Northwest  Level Estimated
05:49PM -5.2773 -37.2955 321° Northwest  Level Estimated
05:50PM -5.2059 -37.3545 321° Northwest  Level Estimated
05:51PM -5.1345 -37.4135 321° Northwest  Level Estimated
05:52PM -5.0631 -37.4724 321° Northwest  Level Estimated
05:53PM -4.9918 -37.5314 321° Northwest  Level Estimated
05:54PM -4.9204 -37.5903 321° Northwest  Level Estimated
05:55PM -4.8490 -37.6492 321° Northwest  Level Estimated
05:56PM -4.7776 -37.7081 321° Northwest  Level Estimated
05:57PM -4.7062 -37.7670 321° Northwest  Level Estimated
05:58PM -4.6347 -37.8259 321° Northwest  Level Estimated
05:59PM -4.5633 -37.8848 321° Northwest  Level Estimated
06:00PM -4.4919 -37.9436 321° Northwest  Level Estimated
06:01PM -4.4205 -38.0025 321° Northwest  Level Estimated
06:02PM -4.3491 -38.0613 321° Northwest  Level Estimated
06:03PM -4.2776 -38.1202 321° Northwest  Level Estimated
06:04PM -4.2062 -38.1790 321° Northwest  Level Estimated
06:05PM -4.1347 -38.2378 321° Northwest  Level Estimated
06:06PM -4.0633 -38.2966 321° Northwest  Level Estimated
06:07PM -3.9918 -38.3553 321° Northwest  Level Estimated
06:08PM -3.9204 -38.4141 321° Northwest  Level Estimated
06:09PM -3.8489 -38.4729 321° Northwest  Level Estimated
06:10PM -3.7774 -38.5316 321° Northwest  Level Estimated
06:11PM -3.7763 -38.5326 321° Northwest  Level Estimated
06:12PM -3.7763 -38.5326 127° Southeast  Level Estimated
06:13PM -3.7763 -38.5326 127° Southeast  Level Estimated
06:14PM -3.7763 -38.5326 127° Southeast  Level Estimated
06:15PM -3.7763 -38.5326 127° Southeast  Level Estimated
06:16PM -3.7763 -38.5326 127° Southeast  Level Estimated
06:17PM -3.7763 -38.5326 127° Southeast  Level Estimated
06:18PM -3.7763 -38.5326 127° Southeast  Level Estimated
06:19PM -3.7763 -38.5326 127° Southeast  Level Estimated
06:20PM -3.7763 -38.5326 127° Southeast  Level Estimated
06:21PM -3.7763 -38.5326 127° Southeast  Level Estimated
06:22PM -3.7763 -38.5326 127° Southeast  Level Estimated
06:23PM -3.7763 -38.5326 127° Southeast  Level Estimated
06:24PM -3.7763 -38.5326 127° Southeast  Level Estimated
06:25PM -3.7763 -38.5326 127° Southeast  Level Estimated
06:26PM -3.7763 -38.5326 127° Southeast  Level Estimated